Time;durP1;ratioP1;P1;durP2;ratioP2;P2;SDS_P1;SDS_P2;PMS_P1;PMS_P2;Temp;Humidity;BMP_temperature;BMP_pressure;BME280_temperature;BME280_humidity;BME280_pressure;Samples;Min_cycle;Max_cycle;Signal;HPM_P1;HPM_P2
2020/12/14 00:02:07;;;;;;;5.80;2.65;;;2.80;99.90;;;;;;5048853;28;20029;-70
2020/12/14 00:04:33;;;;;;;4.53;1.92;;;2.80;99.90;;;;;;5051777;28;20057;-70
2020/12/14 00:06:58;;;;;;;4.38;2.00;;;2.70;99.90;;;;;;5051875;28;20564;-70
2020/12/14 00:09:24;;;;;;;3.65;1.85;;;2.70;99.90;;;;;;5052101;28;20031;-69
2020/12/14 00:11:50;;;;;;;6.35;2.38;;;2.60;99.90;;;;;;5051942;28;20379;-69
2020/12/14 00:14:16;;;;;;;4.60;2.15;;;2.40;99.90;;;;;;5043088;28;20049;-70
2020/12/14 00:16:42;;;;;;;4.28;2.33;;;2.60;99.90;;;;;;5050644;28;20111;-69
2020/12/14 00:19:08;;;;;;;3.72;1.65;;;2.70;99.90;;;;;;5050609;28;20028;-70
2020/12/14 00:21:33;;;;;;;4.63;2.05;;;2.50;99.90;;;;;;5051676;28;20475;-69
2020/12/14 00:23:59;;;;;;;4.00;1.65;;;2.70;99.90;;;;;;5051683;28;20033;-70
2020/12/14 00:26:25;;;;;;;4.85;2.28;;;2.70;99.90;;;;;;5050872;28;20040;-69
2020/12/14 00:28:50;;;;;;;4.43;2.53;;;2.80;99.90;;;;;;5051440;28;20078;-70
2020/12/14 00:31:17;;;;;;;4.10;1.80;;;3.00;99.90;;;;;;5051347;28;20040;-69
2020/12/14 00:33:45;;;;;;;6.63;2.88;;;2.80;99.90;;;;;;5051498;28;20052;-69
2020/12/14 00:36:11;;;;;;;5.28;2.80;;;3.00;99.90;;;;;;5051570;28;20031;-70
2020/12/14 00:38:37;;;;;;;4.47;2.00;;;3.40;99.90;;;;;;5051250;28;20522;-69
2020/12/14 00:41:04;;;;;;;4.68;2.22;;;3.10;99.90;;;;;;5051085;28;20029;-70
2020/12/14 00:43:30;;;;;;;3.17;1.90;;;2.80;99.90;;;;;;5051178;28;20082;-69
2020/12/14 00:45:56;;;;;;;3.40;2.05;;;2.70;99.90;;;;;;5051196;28;20033;-70
2020/12/14 00:48:22;;;;;;;3.30;1.90;;;2.70;99.90;;;;;;5050767;28;20028;-69
2020/12/14 00:50:47;;;;;;;5.35;2.10;;;2.80;99.90;;;;;;5051484;28;20025;-69
2020/12/14 00:53:13;;;;;;;4.25;1.88;;;2.80;99.90;;;;;;5050647;28;20048;-70
2020/12/14 00:55:39;;;;;;;4.65;2.42;;;2.80;99.90;;;;;;5051529;28;20025;-69
2020/12/14 00:58:05;;;;;;;3.80;1.95;;;2.80;99.90;;;;;;5050714;28;20491;-70
2020/12/14 01:00:31;;;;;;;5.13;2.22;;;2.60;99.90;;;;;;5050768;28;20028;-70
2020/12/14 01:02:56;;;;;;;3.75;2.17;;;2.70;99.90;;;;;;5031757;28;20026;-70
2020/12/14 01:05:22;;;;;;;6.30;3.08;;;2.80;99.90;;;;;;5048597;28;20104;-69
2020/12/14 01:07:48;;;;;;;7.97;2.38;;;3.10;99.90;;;;;;5050973;28;20032;-70
2020/12/14 01:10:13;;;;;;;4.40;2.20;;;3.30;99.90;;;;;;5050758;28;20024;-70
2020/12/14 01:12:39;;;;;;;4.88;2.58;;;3.10;99.90;;;;;;5051548;28;20029;-70
2020/12/14 01:15:05;;;;;;;5.15;2.78;;;3.10;99.90;;;;;;5050405;28;20043;-70
2020/12/14 01:17:31;;;;;;;5.95;2.55;;;3.10;99.90;;;;;;5051002;28;20056;-69
2020/12/14 01:19:57;;;;;;;6.95;2.40;;;3.00;99.90;;;;;;5050206;28;20029;-70
2020/12/14 01:22:22;;;;;;;3.42;1.70;;;3.00;99.90;;;;;;5051365;28;20028;-70
2020/12/14 01:24:48;;;;;;;4.55;2.20;;;2.80;99.90;;;;;;5050574;28;20029;-69
2020/12/14 01:27:14;;;;;;;4.13;2.60;;;2.80;99.90;;;;;;5050843;28;20154;-69
2020/12/14 01:29:39;;;;;;;3.35;1.48;;;2.90;99.90;;;;;;5050299;28;20100;-70
2020/12/14 01:32:05;;;;;;;3.78;2.03;;;2.70;99.90;;;;;;5050875;28;20545;-70
2020/12/14 01:34:31;;;;;;;3.70;1.80;;;2.60;99.90;;;;;;5050490;28;20118;-69
2020/12/14 01:36:56;;;;;;;5.85;2.75;;;2.70;99.90;;;;;;5051074;28;20163;-69
2020/12/14 01:39:22;;;;;;;4.18;2.22;;;2.70;99.90;;;;;;5054079;28;20074;-70
2020/12/14 01:41:48;;;;;;;5.18;2.22;;;2.70;99.90;;;;;;5055254;28;20032;-70
2020/12/14 01:44:13;;;;;;;4.55;1.90;;;2.70;99.90;;;;;;5040435;28;20100;-69
2020/12/14 01:46:43;;;;;;;4.95;2.10;;;2.70;99.90;;;;;;5054583;28;20079;-70
2020/12/14 01:49:09;;;;;;;4.78;2.65;;;3.00;99.90;;;;;;5054345;28;20052;-70
2020/12/14 01:51:35;;;;;;;4.25;2.25;;;3.00;99.90;;;;;;5054392;28;20033;-69
2020/12/14 01:54:07;;;;;;;6.25;2.90;;;3.10;99.90;;;;;;5054430;28;20116;-70
2020/12/14 01:56:33;;;;;;;4.85;2.20;;;3.10;99.90;;;;;;5054474;28;20029;-70
2020/12/14 01:58:59;;;;;;;6.70;2.03;;;3.20;99.90;;;;;;5054145;28;20052;-70
2020/12/14 02:01:24;;;;;;;3.35;1.77;;;3.00;99.90;;;;;;5054300;28;20032;-70
2020/12/14 02:03:50;;;;;;;5.60;2.47;;;2.90;99.90;;;;;;5054774;28;20017;-69
2020/12/14 02:06:16;;;;;;;3.97;1.92;;;2.90;99.90;;;;;;5053805;28;20379;-69
2020/12/14 02:08:41;;;;;;;5.57;1.95;;;3.10;99.90;;;;;;5054619;28;20087;-69
2020/12/14 02:11:07;;;;;;;3.80;1.92;;;2.80;99.90;;;;;;5053730;28;20033;-70
2020/12/14 02:13:33;;;;;;;3.60;1.90;;;2.70;99.90;;;;;;5053007;28;20025;-69
2020/12/14 02:15:59;;;;;;;5.72;2.75;;;2.80;99.90;;;;;;5053274;28;20132;-70
2020/12/14 02:18:24;;;;;;;5.05;2.53;;;2.90;99.90;;;;;;5052671;28;20021;-69
2020/12/14 02:20:50;;;;;;;4.35;1.77;;;2.90;99.90;;;;;;5051659;28;20029;-70
2020/12/14 02:23:16;;;;;;;5.93;2.70;;;2.90;99.90;;;;;;5051944;28;20095;-69
2020/12/14 02:25:41;;;;;;;5.93;3.30;;;3.00;99.90;;;;;;5051244;28;20055;-69
2020/12/14 02:28:07;;;;;;;3.88;1.65;;;3.20;99.90;;;;;;5051775;28;20060;-70
2020/12/14 02:30:32;;;;;;;5.32;2.58;;;3.20;99.90;;;;;;5051522;28;20052;-70
2020/12/14 02:32:58;;;;;;;4.63;2.70;;;3.10;99.90;;;;;;5053103;28;20060;-69
2020/12/14 02:35:24;;;;;;;3.88;1.90;;;3.20;99.90;;;;;;5049277;28;20087;-70
2020/12/14 02:37:49;;;;;;;4.18;1.80;;;3.10;99.90;;;;;;5048106;28;20025;-70
2020/12/14 02:40:15;;;;;;;4.78;2.65;;;2.90;99.90;;;;;;5053602;28;20028;-70
2020/12/14 02:42:41;;;;;;;4.75;2.50;;;2.90;99.90;;;;;;5053296;28;20033;-69
2020/12/14 02:45:06;;;;;;;5.78;2.17;;;2.90;99.90;;;;;;5053479;28;20025;-69
2020/12/14 02:47:32;;;;;;;8.70;2.33;;;3.00;99.90;;;;;;5053233;28;20076;-69
2020/12/14 02:49:58;;;;;;;4.75;2.60;;;3.00;99.90;;;;;;5053132;28;20033;-69
2020/12/14 02:52:23;;;;;;;5.65;2.10;;;3.20;99.90;;;;;;5053206;28;20036;-69
2020/12/14 02:54:49;;;;;;;4.00;2.30;;;3.20;99.90;;;;;;5053572;28;20064;-69
2020/12/14 02:57:15;;;;;;;4.28;2.10;;;3.00;99.90;;;;;;5052648;28;20538;-69
2020/12/14 02:59:41;;;;;;;3.67;1.85;;;3.00;99.90;;;;;;5053266;28;20032;-69
2020/12/14 03:02:07;;;;;;;3.83;2.25;;;3.00;99.90;;;;;;5052950;28;20601;-70
2020/12/14 03:04:32;;;;;;;5.63;2.72;;;3.10;99.90;;;;;;5053282;28;20561;-69
2020/12/14 03:06:58;;;;;;;4.60;1.92;;;3.00;99.90;;;;;;5052697;28;20522;-70
2020/12/14 03:09:24;;;;;;;4.13;1.98;;;2.70;99.90;;;;;;5052882;28;20506;-70
2020/12/14 03:11:50;;;;;;;4.78;2.47;;;2.70;99.90;;;;;;5053125;28;20039;-69
2020/12/14 03:14:16;;;;;;;5.30;2.75;;;2.70;99.90;;;;;;5052756;28;20029;-69
2020/12/14 03:16:46;;;;;;;6.18;2.10;;;2.90;99.90;;;;;;5052909;28;20041;-69
2020/12/14 03:19:12;;;;;;;4.25;1.83;;;2.70;99.90;;;;;;5052787;28;20107;-70
2020/12/14 03:21:38;;;;;;;5.18;2.20;;;2.40;99.90;;;;;;5053193;28;20096;-69
2020/12/14 03:24:04;;;;;;;5.00;2.22;;;2.60;99.90;;;;;;5052544;28;20036;-69
2020/12/14 03:26:30;;;;;;;5.35;2.08;;;2.60;99.90;;;;;;5052821;28;20036;-70
2020/12/14 03:28:56;;;;;;;3.55;1.77;;;2.80;99.90;;;;;;5053039;28;20029;-69
2020/12/14 03:31:22;;;;;;;3.53;1.98;;;2.60;99.90;;;;;;5035622;28;20511;-70
2020/12/14 03:33:49;;;;;;;3.38;1.80;;;2.60;99.90;;;;;;5048831;28;20032;-69
2020/12/14 03:36:15;;;;;;;2.95;1.42;;;2.40;99.90;;;;;;5051698;28;20060;-69
2020/12/14 03:38:41;;;;;;;4.78;1.83;;;2.40;99.90;;;;;;5052505;28;20151;-69
2020/12/14 03:41:07;;;;;;;5.63;2.88;;;2.30;99.90;;;;;;5052136;28;20056;-70
2020/12/14 03:43:34;;;;;;;4.57;2.15;;;2.20;99.90;;;;;;5048355;28;20026;-70
2020/12/14 03:46:00;;;;;;;3.90;1.92;;;2.40;99.90;;;;;;5051665;28;20407;-70
2020/12/14 03:48:25;;;;;;;3.65;1.83;;;2.30;99.90;;;;;;5041887;28;20032;-69
2020/12/14 03:50:51;;;;;;;3.70;1.95;;;2.30;99.90;;;;;;5035476;28;20078;-70
2020/12/14 03:53:17;;;;;;;4.43;2.10;;;2.50;99.90;;;;;;5049477;28;20100;-69
2020/12/14 03:55:43;;;;;;;3.65;1.73;;;2.60;99.90;;;;;;5050413;28;20112;-70
2020/12/14 03:58:09;;;;;;;3.00;1.55;;;2.40;99.90;;;;;;5049230;28;20116;-70
2020/12/14 04:00:35;;;;;;;3.30;1.52;;;2.20;99.90;;;;;;5047912;28;20396;-69
2020/12/14 04:03:05;;;;;;;4.93;1.90;;;2.00;99.90;;;;;;5044018;28;20027;-70
2020/12/14 04:05:31;;;;;;;2.85;1.25;;;2.20;99.90;;;;;;5043317;28;20666;-69
2020/12/14 04:07:57;;;;;;;7.20;2.13;;;2.10;99.90;;;;;;5043362;28;20133;-70
2020/12/14 04:10:22;;;;;;;3.55;1.70;;;2.00;99.90;;;;;;5044662;28;20032;-69
2020/12/14 04:12:48;;;;;;;3.70;2.10;;;2.10;99.90;;;;;;5044141;28;20025;-70
2020/12/14 04:15:14;;;;;;;4.57;1.92;;;2.10;99.90;;;;;;5035813;28;20398;-70
2020/12/14 04:17:40;;;;;;;3.72;1.98;;;2.40;99.90;;;;;;5034023;28;20048;-70
2020/12/14 04:20:05;;;;;;;11.38;4.65;;;2.50;99.90;;;;;;5042405;28;20116;-70
2020/12/14 04:22:31;;;;;;;5.40;1.92;;;2.70;99.90;;;;;;5043656;28;20068;-70
2020/12/14 04:24:57;;;;;;;4.85;2.50;;;2.70;99.90;;;;;;5044103;28;20460;-70
2020/12/14 04:27:22;;;;;;;10.25;3.97;;;2.90;99.90;;;;;;5044242;28;20123;-70
2020/12/14 04:29:48;;;;;;;3.70;1.85;;;2.80;99.90;;;;;;5044060;28;20033;-70
2020/12/14 04:32:14;;;;;;;3.85;1.65;;;2.80;99.90;;;;;;5044077;28;20503;-69
2020/12/14 04:34:39;;;;;;;4.10;2.10;;;2.70;99.90;;;;;;5043623;28;20032;-70
2020/12/14 04:37:05;;;;;;;5.00;2.30;;;2.70;99.90;;;;;;5043656;28;20591;-70
2020/12/14 04:39:31;;;;;;;3.72;2.00;;;2.60;99.90;;;;;;5043871;28;20881;-70
2020/12/14 04:41:57;;;;;;;3.17;1.75;;;2.50;99.90;;;;;;5044311;28;20492;-69
2020/12/14 04:44:23;;;;;;;5.25;2.25;;;2.40;99.90;;;;;;5043542;28;20028;-69
2020/12/14 04:46:49;;;;;;;3.42;1.50;;;2.20;99.90;;;;;;5043822;28;20099;-70
2020/12/14 04:49:15;;;;;;;3.55;2.50;;;2.20;99.90;;;;;;5043605;28;21021;-69
2020/12/14 04:51:41;;;;;;;6.10;1.92;;;2.20;99.90;;;;;;5043626;28;20438;-70
2020/12/14 04:54:08;;;;;;;4.03;1.90;;;2.50;99.90;;;;;;5043559;28;20029;-69
2020/12/14 04:56:39;;;;;;;4.63;2.72;;;2.80;99.90;;;;;;5044276;28;20618;-69
2020/12/14 04:59:05;;;;;;;6.00;2.42;;;2.70;99.90;;;;;;5043492;28;20036;-70
2020/12/14 05:01:31;;;;;;;2.88;1.60;;;2.70;99.90;;;;;;5043346;28;20052;-69
2020/12/14 05:03:56;;;;;;;3.17;1.67;;;2.20;99.90;;;;;;5050476;28;20071;-69
2020/12/14 05:06:22;;;;;;;4.38;1.90;;;2.20;99.90;;;;;;5063848;28;20056;-70
2020/12/14 05:08:48;;;;;;;5.15;1.67;;;2.20;99.90;;;;;;5056248;28;20036;-71
2020/12/14 05:11:14;;;;;;;5.35;2.00;;;2.20;99.90;;;;;;5043538;28;20348;-72
2020/12/14 05:13:40;;;;;;;3.55;1.70;;;2.50;99.90;;;;;;5043218;28;20094;-72
2020/12/14 05:16:06;;;;;;;4.60;1.80;;;2.50;99.90;;;;;;5042824;28;20038;-72
2020/12/14 05:18:31;;;;;;;4.75;1.65;;;2.50;99.90;;;;;;5043166;28;20048;-72
2020/12/14 05:20:59;;;;;;;3.95;1.95;;;2.30;99.90;;;;;;5043701;28;20037;-72
2020/12/14 05:23:26;;;;;;;4.57;2.22;;;2.30;99.90;;;;;;5043244;28;20056;-72
2020/12/14 05:26:14;;;;;;;2.97;1.50;;;2.10;99.90;;;;;;5042957;28;20052;-72
2020/12/14 05:28:40;;;;;;;3.78;1.67;;;2.00;99.90;;;;;;5043197;28;20025;-71
2020/12/14 05:31:18;;;;;;;3.63;2.00;;;1.80;99.90;;;;;;5043569;28;20033;-72
2020/12/14 05:33:43;;;;;;;3.88;1.70;;;1.90;99.90;;;;;;5043456;28;20035;-71
2020/12/14 05:36:15;;;;;;;4.65;1.75;;;1.80;99.90;;;;;;5043058;28;20032;-72
2020/12/14 05:38:41;;;;;;;4.03;1.90;;;1.60;99.90;;;;;;5043463;28;20025;-72
2020/12/14 05:41:07;;;;;;;4.10;1.92;;;1.80;99.90;;;;;;5043061;28;20024;-72
2020/12/14 05:43:33;;;;;;;3.15;1.50;;;1.90;99.90;;;;;;5043436;28;20086;-72
2020/12/14 05:46:15;;;;;;;4.03;2.33;;;1.90;99.90;;;;;;5043456;28;20025;-72
2020/12/14 05:48:41;;;;;;;5.10;2.13;;;1.90;99.90;;;;;;5043308;28;20021;-72
2020/12/14 05:51:08;;;;;;;2.85;1.50;;;2.30;99.90;;;;;;5043302;28;20033;-72
2020/12/14 05:53:39;;;;;;;3.85;1.50;;;2.20;99.90;;;;;;5043419;28;20075;-71
2020/12/14 05:56:07;;;;;;;2.88;1.60;;;2.10;99.90;;;;;;5023929;28;20527;-72
2020/12/14 05:58:34;;;;;;;2.75;1.67;;;2.00;99.90;;;;;;5034050;28;20375;-72
2020/12/14 06:01:01;;;;;;;3.83;1.77;;;2.10;99.90;;;;;;5042917;28;20495;-72
2020/12/14 06:03:27;;;;;;;4.88;1.83;;;2.00;99.90;;;;;;5043420;28;20043;-72
2020/12/14 06:05:58;;;;;;;3.50;1.63;;;1.90;99.90;;;;;;5043121;28;20079;-72
2020/12/14 06:08:47;;;;;;;3.53;1.55;;;2.20;99.90;;;;;;5043418;28;20115;-72
2020/12/14 06:11:13;;;;;;;2.90;1.30;;;2.30;99.90;;;;;;5044230;28;20035;-72
2020/12/14 06:13:47;;;;;;;3.28;1.58;;;2.30;99.90;;;;;;5047103;28;20029;-71
2020/12/14 06:16:18;;;;;;;33.47;15.90;;;2.30;99.90;;;;;;5037679;28;20103;-71
2020/12/14 06:18:45;;;;;;;4.57;2.05;;;2.50;99.90;;;;;;5028595;28;20025;-71
2020/12/14 06:21:16;;;;;;;3.65;1.77;;;2.40;99.90;;;;;;5041826;28;20079;-72
2020/12/14 06:23:44;;;;;;;5.78;1.77;;;2.70;99.90;;;;;;5042468;28;20033;-72
2020/12/14 06:26:10;;;;;;;4.50;1.83;;;2.30;99.90;;;;;;5045142;28;20126;-72
2020/12/14 06:28:37;;;;;;;3.85;1.60;;;2.40;99.90;;;;;;5045526;28;20513;-71
2020/12/14 06:31:03;;;;;;;3.20;1.60;;;2.30;99.90;;;;;;5036379;28;20357;-72
2020/12/14 06:33:37;;;;;;;4.13;1.70;;;2.30;99.90;;;;;;5038672;28;20033;-72
2020/12/14 06:36:23;;;;;;;4.63;1.67;;;2.10;99.90;;;;;;5046604;28;20055;-72
2020/12/14 06:38:51;;;;;;;3.80;1.58;;;2.30;99.90;;;;;;5046897;28;20394;-72
2020/12/14 06:41:18;;;;;;;3.33;1.60;;;2.40;99.90;;;;;;5046183;28;20036;-72
2020/12/14 06:43:45;;;;;;;3.38;1.75;;;2.40;99.90;;;;;;5045654;28;20330;-72
2020/12/14 06:46:11;;;;;;;2.55;1.30;;;2.40;99.90;;;;;;5046346;28;20036;-72
2020/12/14 06:48:41;;;;;;;3.28;1.63;;;2.40;99.90;;;;;;5046755;28;20044;-71
2020/12/14 06:51:15;;;;;;;3.38;1.83;;;2.30;99.90;;;;;;5045896;28;20037;-72
2020/12/14 06:53:53;;;;;;;6.25;3.35;;;2.20;99.90;;;;;;5046065;28;20116;-72
2020/12/14 06:56:39;;;;;;;5.07;2.40;;;1.90;99.90;;;;;;5045955;28;20375;-71
2020/12/14 06:59:25;;;;;;;3.80;1.70;;;1.80;99.90;;;;;;5050372;28;20029;-71
2020/12/14 07:01:56;;;;;;;3.63;2.30;;;1.80;99.90;;;;;;5045737;28;20024;-72
2020/12/14 07:04:28;;;;;;;3.55;1.85;;;1.60;99.90;;;;;;5044909;28;20037;-72
2020/12/14 07:06:57;;;;;;;3.20;1.75;;;1.70;99.90;;;;;;5045114;28;20437;-72
2020/12/14 07:09:28;;;;;;;3.85;1.75;;;2.00;99.90;;;;;;5044941;28;20676;-72
2020/12/14 07:12:17;;;;;;;3.30;1.55;;;2.10;99.90;;;;;;5044913;28;20363;-72
2020/12/14 07:14:51;;;;;;;3.80;1.58;;;2.10;99.90;;;;;;5044654;28;20044;-71
2020/12/14 07:17:24;;;;;;;3.15;1.50;;;2.10;99.90;;;;;;5044588;28;20146;-73
2020/12/14 07:19:55;;;;;;;4.78;1.55;;;1.80;99.90;;;;;;5043288;28;20025;-71
2020/12/14 07:22:33;;;;;;;3.33;1.60;;;1.80;99.90;;;;;;5044664;28;20041;-72
2020/12/14 07:24:58;;;;;;;4.15;2.08;;;1.60;99.90;;;;;;5043085;28;20041;-71
2020/12/14 07:27:25;;;;;;;4.38;1.60;;;1.80;99.90;;;;;;5024891;28;20053;-72
2020/12/14 07:29:50;;;;;;;3.40;1.90;;;1.80;99.90;;;;;;5025118;28;20022;-71
2020/12/14 07:32:16;;;;;;;4.22;1.80;;;1.70;99.90;;;;;;5022579;28;20553;-71
2020/12/14 07:34:54;;;;;;;5.25;1.33;;;1.70;99.90;;;;;;5031636;28;20392;-71
2020/12/14 07:37:23;;;;;;;3.08;1.42;;;2.20;99.90;;;;;;5043329;28;20090;-73
2020/12/14 07:39:50;;;;;;;6.65;2.78;;;2.30;99.90;;;;;;5043186;28;20040;-72
2020/12/14 07:42:25;;;;;;;4.97;2.40;;;2.20;99.90;;;;;;5042957;28;20682;-72
2020/12/14 07:45:09;;;;;;;4.88;2.30;;;2.20;99.90;;;;;;5039220;28;20029;-73
2020/12/14 07:47:35;;;;;;;4.43;1.50;;;2.30;99.90;;;;;;5042034;28;20117;-72
2020/12/14 07:50:14;;;;;;;6.93;2.25;;;2.30;99.90;;;;;;5044756;28;20104;-72
2020/12/14 07:52:40;;;;;;;4.72;2.10;;;2.30;99.90;;;;;;5044232;28;20035;-72
2020/12/14 07:55:08;;;;;;;2.83;1.60;;;2.20;99.90;;;;;;5041230;28;20033;-72
2020/12/14 07:57:45;;;;;;;4.57;2.10;;;2.40;99.90;;;;;;5044127;28;20110;-72
2020/12/14 08:00:16;;;;;;;5.07;2.00;;;2.40;99.90;;;;;;5044580;28;20024;-72
2020/12/14 08:02:43;;;;;;;4.78;2.97;;;2.30;99.90;;;;;;5044791;28;20043;-71
2020/12/14 08:05:11;;;;;;;7.28;3.13;;;2.10;99.90;;;;;;5044822;28;20079;-71
2020/12/14 08:07:46;;;;;;;4.95;2.42;;;2.10;99.90;;;;;;5044744;28;20051;-72
2020/12/14 08:10:12;;;;;;;4.75;2.30;;;2.30;99.90;;;;;;5044882;28;20033;-70
2020/12/14 08:12:42;;;;;;;5.38;2.60;;;2.20;99.90;;;;;;5044678;28;20072;-72
2020/12/14 08:15:14;;;;;;;7.05;2.38;;;2.20;99.90;;;;;;5043289;28;20371;-72
2020/12/14 08:17:40;;;;;;;4.38;2.22;;;2.30;99.90;;;;;;5044049;28;20060;-73
2020/12/14 08:20:22;;;;;;;5.97;2.50;;;2.30;99.90;;;;;;5044374;28;20110;-74
2020/12/14 08:22:48;;;;;;;6.07;2.83;;;2.20;99.90;;;;;;5044608;28;20035;-72
2020/12/14 08:25:25;;;;;;;5.40;2.00;;;2.00;99.90;;;;;;5043564;28;20112;-73
2020/12/14 08:27:57;;;;;;;3.95;1.85;;;1.90;99.90;;;;;;5044597;28;20115;-73
2020/12/14 08:30:25;;;;;;;4.68;2.15;;;1.90;99.90;;;;;;5040173;28;20033;-72
2020/12/14 08:33:26;;;;;;;3.75;1.90;;;2.00;99.90;;;;;;5024425;28;20079;-73
2020/12/14 08:35:53;;;;;;;3.90;1.85;;;2.20;99.90;;;;;;5001937;28;20030;-72
2020/12/14 08:38:24;;;;;;;4.60;1.77;;;2.20;99.90;;;;;;5024872;28;20478;-73
2020/12/14 08:41:04;;;;;;;3.58;1.33;;;2.40;99.90;;;;;;5043393;28;20036;-73
2020/12/14 08:43:34;;;;;;;2.75;1.38;;;2.30;99.90;;;;;;5044174;28;20023;-72
2020/12/14 08:46:18;;;;;;;3.22;1.30;;;2.30;99.90;;;;;;5043840;28;20032;-72
2020/12/14 08:48:54;;;;;;;3.75;1.90;;;2.50;99.90;;;;;;5043059;28;20025;-72
2020/12/14 08:51:23;;;;;;;3.00;1.58;;;2.50;99.90;;;;;;5043506;28;20032;-72
2020/12/14 08:53:50;;;;;;;3.22;1.85;;;2.40;99.90;;;;;;5043985;28;20029;-71
2020/12/14 08:56:18;;;;;;;2.67;1.30;;;2.40;99.90;;;;;;5043710;28;20021;-71
2020/12/14 08:58:52;;;;;;;2.35;1.30;;;2.40;99.90;;;;;;5043517;28;20025;-71
2020/12/14 09:01:21;;;;;;;3.13;1.65;;;2.30;99.90;;;;;;5043383;28;20510;-70
2020/12/14 09:03:56;;;;;;;3.08;1.50;;;2.20;99.90;;;;;;5043873;28;20048;-70
2020/12/14 09:06:21;;;;;;;4.28;2.17;;;2.30;99.90;;;;;;5044076;28;20083;-71
2020/12/14 09:09:14;;;;;;;4.90;2.13;;;2.60;99.90;;;;;;5044018;28;20075;-70
2020/12/14 09:11:46;;;;;;;3.40;1.42;;;2.70;99.90;;;;;;5043753;28;20060;-70
2020/12/14 09:14:19;;;;;;;2.72;1.30;;;2.70;99.90;;;;;;5043939;28;20031;-70
2020/12/14 09:16:48;;;;;;;3.35;1.40;;;2.80;99.90;;;;;;5043521;28;20055;-70
2020/12/14 09:19:22;;;;;;;4.35;1.80;;;2.70;99.90;;;;;;5043650;28;20023;-71
2020/12/14 09:21:47;;;;;;;3.55;1.83;;;2.80;99.90;;;;;;5043313;28;20032;-70
2020/12/14 09:24:40;;;;;;;3.08;1.45;;;2.70;99.90;;;;;;5043683;28;20086;-71
2020/12/14 09:27:11;;;;;;;3.38;1.45;;;2.60;99.90;;;;;;5042842;28;20056;-71
2020/12/14 09:29:38;;;;;;;9.02;5.18;;;2.60;99.90;;;;;;5043699;28;20132;-70
2020/12/14 09:32:05;;;;;;;4.65;3.03;;;2.60;99.90;;;;;;5035475;28;20036;-71
2020/12/14 09:34:31;;;;;;;20.00;9.57;;;2.40;99.90;;;;;;5042370;28;20043;-71
2020/12/14 09:36:58;;;;;;;12.05;6.72;;;2.40;99.90;;;;;;5041938;28;20528;-71
2020/12/14 09:39:26;;;;;;;6.47;2.80;;;2.50;99.90;;;;;;5041845;28;20057;-71
2020/12/14 09:41:55;;;;;;;3.30;1.70;;;2.40;99.90;;;;;;5041253;28;20108;-71
2020/12/14 09:44:21;;;;;;;5.10;1.50;;;2.30;99.90;;;;;;5041703;28;20033;-70
2020/12/14 09:46:47;;;;;;;5.28;1.90;;;2.40;99.90;;;;;;5041353;28;20468;-71
2020/12/14 09:49:14;;;;;;;4.50;2.30;;;2.30;99.90;;;;;;5041717;28;20087;-71
2020/12/14 09:51:39;;;;;;;4.47;2.00;;;2.40;99.90;;;;;;5043315;28;20029;-71
2020/12/14 09:54:06;;;;;;;3.65;1.80;;;2.40;99.90;;;;;;5043110;28;20044;-70
2020/12/14 09:56:33;;;;;;;4.20;2.17;;;2.40;99.90;;;;;;5042757;28;20101;-71
2020/12/14 09:58:59;;;;;;;5.38;2.38;;;2.30;99.90;;;;;;5043456;28;20036;-71
2020/12/14 10:01:27;;;;;;;4.10;1.50;;;2.30;99.90;;;;;;5047232;28;20025;-70
2020/12/14 10:03:54;;;;;;;4.53;1.90;;;2.40;99.90;;;;;;5046785;28;20039;-72
2020/12/14 10:06:19;;;;;;;3.65;2.00;;;2.40;99.90;;;;;;5047107;28;20033;-71
2020/12/14 10:08:45;;;;;;;4.63;2.20;;;2.50;99.90;;;;;;5047289;28;20938;-70
2020/12/14 10:11:11;;;;;;;5.28;2.20;;;2.60;99.90;;;;;;5045201;28;20067;-70
2020/12/14 10:13:39;;;;;;;4.88;2.38;;;2.50;99.90;;;;;;5046261;28;20025;-71
2020/12/14 10:16:05;;;;;;;4.32;2.20;;;2.60;99.90;;;;;;5046684;28;20056;-71
2020/12/14 10:18:31;;;;;;;3.13;1.40;;;2.70;99.90;;;;;;5046554;28;20530;-70
2020/12/14 10:20:56;;;;;;;17.05;8.32;;;2.70;99.90;;;;;;5046648;28;20060;-71
2020/12/14 10:23:22;;;;;;;4.65;1.95;;;2.70;99.90;;;;;;5045616;28;20048;-73
2020/12/14 10:25:48;;;;;;;7.47;2.83;;;2.70;99.90;;;;;;5046899;28;20032;-72
2020/12/14 10:28:14;;;;;;;8.82;3.88;;;2.70;99.90;;;;;;5046364;28;20060;-70
2020/12/14 10:30:39;;;;;;;6.97;2.90;;;2.70;99.90;;;;;;5046491;28;20025;-70
2020/12/14 10:33:05;;;;;;;4.32;2.35;;;2.60;99.90;;;;;;5046247;28;20029;-71
2020/12/14 10:35:32;;;;;;;3.33;1.40;;;2.70;99.90;;;;;;5046058;28;20476;-71
2020/12/14 10:37:58;;;;;;;4.72;2.03;;;2.80;99.90;;;;;;5046388;28;20060;-71
2020/12/14 10:40:24;;;;;;;4.15;1.80;;;3.00;99.90;;;;;;5046669;28;20036;-71
2020/12/14 10:42:51;;;;;;;4.80;2.20;;;3.00;99.90;;;;;;5046703;28;20044;-71
2020/12/14 10:45:16;;;;;;;6.65;2.97;;;3.10;99.90;;;;;;5045870;28;20490;-70
2020/12/14 10:47:42;;;;;;;7.93;3.72;;;3.10;99.90;;;;;;5046302;28;20035;-71
2020/12/14 10:50:09;;;;;;;9.20;3.75;;;3.20;99.90;;;;;;5044994;28;20108;-71
2020/12/14 10:52:35;;;;;;;12.70;4.60;;;3.30;99.90;;;;;;5044371;28;20547;-71
2020/12/14 10:55:01;;;;;;;10.82;4.80;;;3.40;99.90;;;;;;5046323;28;20037;-71
2020/12/14 10:57:27;;;;;;;8.10;3.47;;;3.60;99.90;;;;;;5045798;28;20025;-71
2020/12/14 10:59:59;;;;;;;6.20;2.40;;;3.60;99.90;;;;;;5045846;28;20025;-71
2020/12/14 11:02:24;;;;;;;7.30;2.95;;;3.70;99.90;;;;;;5046154;28;20104;-71
2020/12/14 11:04:51;;;;;;;5.88;2.63;;;3.90;99.90;;;;;;5046087;28;20120;-71
2020/12/14 11:07:17;;;;;;;4.63;2.40;;;4.00;99.90;;;;;;5044198;28;20108;-71
2020/12/14 11:09:42;;;;;;;6.00;2.40;;;4.00;99.90;;;;;;5025365;28;20551;-71
2020/12/14 11:12:08;;;;;;;5.88;2.70;;;4.00;99.90;;;;;;5025892;28;20029;-71
2020/12/14 11:14:34;;;;;;;7.28;4.32;;;4.10;99.90;;;;;;5025963;28;20022;-71
2020/12/14 11:17:01;;;;;;;6.82;3.90;;;4.00;99.90;;;;;;5025138;28;20518;-71
2020/12/14 11:19:27;;;;;;;8.68;4.18;;;4.10;99.90;;;;;;5041366;28;20025;-71
2020/12/14 11:21:54;;;;;;;7.40;3.88;;;4.30;99.90;;;;;;5040496;28;20522;-71
2020/12/14 11:24:21;;;;;;;6.22;3.58;;;4.40;99.90;;;;;;5030258;28;20036;-71
2020/12/14 11:26:47;;;;;;;7.25;3.20;;;4.30;99.90;;;;;;5025350;28;20041;-71
2020/12/14 11:29:13;;;;;;;5.07;2.95;;;4.40;99.90;;;;;;5025370;28;20029;-70
2020/12/14 11:31:39;;;;;;;37.75;20.40;;;4.40;99.90;;;;;;5023812;28;20108;-71
2020/12/14 11:34:05;;;;;;;19.77;11.48;;;4.80;99.90;;;;;;5033599;28;20041;-71
2020/12/14 11:36:32;;;;;;;10.13;5.53;;;5.00;99.90;;;;;;5033947;28;20025;-70
2020/12/14 11:38:58;;;;;;;9.00;4.70;;;4.90;99.90;;;;;;5026880;28;20112;-71
2020/12/14 11:41:25;;;;;;;7.57;5.35;;;5.10;99.90;;;;;;5030384;28;20638;-70
2020/12/14 11:43:51;;;;;;;4.57;2.75;;;5.30;99.90;;;;;;5043592;28;20531;-70
2020/12/14 11:46:18;;;;;;;9.60;5.90;;;5.30;99.90;;;;;;5042828;28;20452;-71
2020/12/14 11:48:43;;;;;;;24.80;14.43;;;5.40;99.90;;;;;;5043777;28;20463;-71
2020/12/14 11:51:09;;;;;;;18.25;10.43;;;5.30;99.90;;;;;;5043467;28;20033;-70
2020/12/14 11:53:35;;;;;;;22.70;14.82;;;5.30;99.90;;;;;;5043902;28;20562;-70
2020/12/14 11:56:01;;;;;;;14.23;9.93;;;5.20;99.90;;;;;;5044171;28;20025;-70
2020/12/14 11:58:27;;;;;;;31.65;21.73;;;5.30;99.90;;;;;;5025076;28;20108;-71
2020/12/14 12:00:53;;;;;;;14.45;8.05;;;5.30;99.90;;;;;;5025354;28;20026;-70
2020/12/14 12:03:18;;;;;;;43.95;30.42;;;5.30;99.90;;;;;;5024916;28;20032;-71
2020/12/14 12:05:46;;;;;;;23.98;16.35;;;5.40;99.90;;;;;;5025135;28;20419;-70
2020/12/14 12:08:12;;;;;;;30.45;23.63;;;5.40;99.90;;;;;;5032275;28;20086;-71
2020/12/14 12:10:37;;;;;;;17.02;11.93;;;5.40;99.90;;;;;;5044737;28;20399;-70
2020/12/14 12:13:03;;;;;;;7.32;4.40;;;5.50;99.90;;;;;;5044792;28;20055;-71
2020/12/14 12:15:29;;;;;;;7.25;4.68;;;5.50;99.90;;;;;;5044460;28;20498;-71
2020/12/14 12:17:54;;;;;;;8.07;4.80;;;5.60;99.90;;;;;;5037732;28;20033;-72
2020/12/14 12:20:21;;;;;;;5.50;3.03;;;5.70;99.90;;;;;;5024761;28;20029;-71
2020/12/14 12:22:46;;;;;;;63.15;34.45;;;5.70;99.90;;;;;;5023068;28;20104;-71
2020/12/14 12:25:12;;;;;;;15.40;8.10;;;5.80;99.90;;;;;;5041473;28;20471;-71
2020/12/14 12:27:38;;;;;;;7.47;4.65;;;5.90;99.90;;;;;;5042971;28;20044;-71
2020/12/14 12:30:04;;;;;;;9.82;6.70;;;5.90;99.90;;;;;;5043749;28;20032;-71
2020/12/14 12:32:30;;;;;;;10.52;3.33;;;5.90;99.90;;;;;;5044104;28;20036;-71
2020/12/14 12:34:56;;;;;;;9.45;6.10;;;6.00;99.90;;;;;;5043801;28;20096;-71
2020/12/14 12:37:22;;;;;;;11.40;5.22;;;6.10;99.90;;;;;;5043769;28;20040;-71
2020/12/14 12:39:47;;;;;;;10.73;5.78;;;6.10;99.80;;;;;;5027011;28;20025;-71
2020/12/14 12:42:13;;;;;;;7.85;4.85;;;6.10;99.90;;;;;;5023776;28;20356;-71
2020/12/14 12:44:39;;;;;;;6.68;3.65;;;6.10;99.90;;;;;;5023730;28;20411;-71
2020/12/14 12:47:05;;;;;;;8.90;6.05;;;6.10;99.90;;;;;;5034767;28;20045;-71
2020/12/14 12:49:32;;;;;;;6.63;2.97;;;6.20;99.90;;;;;;5043548;28;20472;-71
2020/12/14 12:51:59;;;;;;;5.30;2.88;;;6.30;99.90;;;;;;5043215;28;20119;-71
2020/12/14 12:54:26;;;;;;;5.45;2.75;;;6.20;99.90;;;;;;5043162;28;20029;-71
2020/12/14 12:56:52;;;;;;;7.30;2.60;;;6.30;99.90;;;;;;5042676;28;20032;-71
2020/12/14 12:59:17;;;;;;;5.85;2.63;;;6.30;99.90;;;;;;5042885;28;20054;-71